Time;durP1;ratioP1;P1;durP2;ratioP2;P2;SDS_P1;SDS_P2;PMS_P1;PMS_P2;Temp;Humidity;BMP_temperature;BMP_pressure;BME280_temperature;BME280_humidity;BME280_pressure;Samples;Min_cycle;Max_cycle;Signal;HPM_P1;HPM_P2
2024/02/14 00:01:26;;;;;;;12.40;7.82;;;3.40;99.90;;;;;;5009975;28;20127;-47
2024/02/14 00:03:53;;;;;;;12.73;8.20;;;3.40;99.90;;;;;;5004753;28;20046;-46
2024/02/14 00:06:20;;;;;;;13.15;7.35;;;3.40;99.90;;;;;;5008717;28;20073;-51
2024/02/14 00:08:47;;;;;;;15.23;7.50;;;3.40;99.90;;;;;;5008490;28;20491;-47
2024/02/14 00:11:14;;;;;;;15.98;7.82;;;3.40;99.90;;;;;;5013760;28;20438;-49
2024/02/14 00:13:41;;;;;;;14.73;7.30;;;3.40;99.90;;;;;;5015090;28;20100;-52
2024/02/14 00:16:09;;;;;;;13.52;7.78;;;3.40;99.90;;;;;;5012857;28;20056;-45
2024/02/14 00:18:36;;;;;;;13.10;7.82;;;3.50;99.90;;;;;;5012566;28;20098;-43
2024/02/14 00:21:03;;;;;;;14.73;7.93;;;3.50;99.90;;;;;;5012187;28;20050;-48
2024/02/14 00:23:30;;;;;;;15.05;8.05;;;3.40;99.90;;;;;;5010440;28;20471;-49
2024/02/14 00:25:57;;;;;;;12.48;7.68;;;3.50;99.90;;;;;;5010561;28;20073;-47
2024/02/14 00:28:26;;;;;;;14.02;8.32;;;3.50;99.90;;;;;;5009670;28;20048;-50
2024/02/14 00:30:54;;;;;;;13.52;7.95;;;3.40;99.90;;;;;;5011665;28;20125;-48
2024/02/14 00:33:41;;;;;;;14.15;8.27;;;3.40;99.90;;;;;;4996801;28;20191;-52
2024/02/14 00:36:08;;;;;;;11.75;7.78;;;3.40;99.90;;;;;;5008748;28;20511;-49
2024/02/14 00:38:35;;;;;;;15.02;8.10;;;3.40;99.90;;;;;;5009506;28;20060;-52
2024/02/14 00:41:03;;;;;;;15.40;8.38;;;3.30;99.90;;;;;;5008048;28;20070;-49
2024/02/14 00:43:30;;;;;;;15.23;8.88;;;3.30;99.90;;;;;;5009132;28;20042;-47
2024/02/14 00:45:56;;;;;;;15.05;7.93;;;3.30;99.90;;;;;;5008723;28;20052;-47
2024/02/14 00:48:23;;;;;;;14.25;8.35;;;3.30;99.90;;;;;;5011049;28;20046;-54
2024/02/14 00:50:52;;;;;;;13.70;8.02;;;3.30;99.90;;;;;;5008214;28;20049;-48
2024/02/14 00:53:19;;;;;;;13.13;8.32;;;3.30;99.90;;;;;;5007856;28;20129;-47
2024/02/14 00:55:46;;;;;;;16.58;8.30;;;3.30;99.90;;;;;;5008391;28;20097;-49
2024/02/14 00:58:13;;;;;;;16.20;7.90;;;3.40;99.90;;;;;;5005685;28;20054;-49
2024/02/14 01:00:39;;;;;;;13.05;8.02;;;3.50;99.90;;;;;;5008638;28;20048;-46
2024/02/14 01:03:07;;;;;;;15.05;8.48;;;3.40;99.90;;;;;;5009451;28;20057;-44
2024/02/14 01:05:35;;;;;;;13.98;7.68;;;3.50;99.90;;;;;;5008943;28;20061;-50
2024/02/14 01:08:02;;;;;;;16.17;8.23;;;3.40;99.90;;;;;;5007522;28;20053;-50
2024/02/14 01:10:29;;;;;;;16.27;8.57;;;3.40;99.90;;;;;;5008570;28;20052;-45
2024/02/14 01:12:56;;;;;;;15.32;7.97;;;3.40;99.90;;;;;;5008220;28;20046;-43
2024/02/14 01:15:23;;;;;;;12.00;7.80;;;3.40;99.90;;;;;;5007885;28;20038;-46
2024/02/14 01:17:50;;;;;;;12.40;7.47;;;3.50;99.90;;;;;;5009514;28;20052;-53
2024/02/14 01:20:18;;;;;;;13.38;7.93;;;3.50;99.90;;;;;;5007796;28;20038;-49
2024/02/14 01:22:46;;;;;;;13.00;7.60;;;3.50;99.90;;;;;;5008310;28;20050;-49
2024/02/14 01:25:21;;;;;;;16.77;8.07;;;3.50;99.90;;;;;;5007911;28;20058;-52
2024/02/14 01:27:48;;;;;;;13.60;7.35;;;3.40;99.90;;;;;;5007814;28;20072;-45
2024/02/14 01:30:16;;;;;;;12.70;7.60;;;3.40;99.90;;;;;;4990148;28;20077;-48
2024/02/14 01:32:43;;;;;;;17.52;7.68;;;3.50;99.90;;;;;;5008411;28;20052;-46
2024/02/14 01:35:10;;;;;;;12.43;7.05;;;3.50;99.90;;;;;;5007646;28;20187;-50
2024/02/14 01:37:37;;;;;;;13.20;7.57;;;3.50;99.90;;;;;;5008571;28;20548;-47
2024/02/14 01:40:07;;;;;;;12.48;6.85;;;3.60;99.90;;;;;;5007146;28;20041;-48
2024/02/14 01:42:47;;;;;;;12.98;7.20;;;3.60;99.90;;;;;;5007405;28;20046;-49
2024/02/14 01:45:15;;;;;;;11.32;7.00;;;3.60;99.90;;;;;;5005864;28;20050;-48
2024/02/14 01:47:50;;;;;;;11.82;7.13;;;3.60;99.90;;;;;;5006914;28;20120;-47
2024/02/14 01:50:18;;;;;;;11.43;6.38;;;3.50;99.90;;;;;;5007606;28;20053;-42
2024/02/14 01:52:45;;;;;;;13.35;6.75;;;3.60;99.90;;;;;;4987649;28;20034;-48
2024/02/14 01:55:13;;;;;;;11.75;6.70;;;3.60;99.90;;;;;;5006990;28;20480;-52
2024/02/14 01:57:40;;;;;;;11.63;6.78;;;3.60;99.90;;;;;;5005136;28;20471;-46
2024/02/14 02:00:17;;;;;;;11.35;6.70;;;3.60;99.90;;;;;;5007137;28;20128;-49
2024/02/14 02:02:46;;;;;;;11.13;6.57;;;3.60;99.90;;;;;;5009210;28;20537;-47
2024/02/14 02:05:18;;;;;;;9.32;6.00;;;3.60;99.90;;;;;;4990067;28;20049;-48
2024/02/14 02:07:48;;;;;;;10.23;6.75;;;3.60;99.90;;;;;;5007192;28;20054;-52
2024/02/14 02:10:16;;;;;;;11.98;6.80;;;3.60;99.90;;;;;;5006215;28;20576;-48
2024/02/14 02:13:03;;;;;;;11.43;6.60;;;3.60;99.90;;;;;;5008350;28;20119;-48
2024/02/14 02:15:52;;;;;;;9.55;5.63;;;3.50;99.90;;;;;;4989099;28;20117;-47
2024/02/14 02:18:38;;;;;;;10.93;5.95;;;3.60;99.90;;;;;;5007479;28;20045;-47
2024/02/14 02:21:25;;;;;;;12.20;6.43;;;3.60;99.90;;;;;;5004688;28;20061;-51
2024/02/14 02:23:52;;;;;;;13.57;6.88;;;3.60;99.90;;;;;;5013908;28;20041;-47
2024/02/14 02:26:19;;;;;;;10.55;6.15;;;3.60;99.90;;;;;;5009827;28;20128;-43
2024/02/14 02:29:06;;;;;;;9.93;6.60;;;3.60;99.90;;;;;;5005562;28;20608;-48
2024/02/14 02:31:33;;;;;;;9.60;5.82;;;3.60;99.90;;;;;;5012322;28;20132;-53
2024/02/14 02:34:00;;;;;;;10.57;6.78;;;3.60;99.90;;;;;;5008888;28;20042;-48
2024/02/14 02:36:30;;;;;;;10.52;5.68;;;3.70;99.90;;;;;;5013681;28;20042;-50
2024/02/14 02:39:17;;;;;;;9.40;6.05;;;3.70;99.90;;;;;;5007383;28;20499;-48
2024/02/14 02:42:04;;;;;;;13.10;6.63;;;3.70;99.90;;;;;;5009723;28;20111;-48
2024/02/14 02:44:57;;;;;;;11.00;6.30;;;3.70;99.90;;;;;;5006665;28;20128;-53
2024/02/14 02:47:47;;;;;;;12.57;5.95;;;3.70;99.90;;;;;;5011603;28;20123;-51
2024/02/14 02:50:35;;;;;;;10.27;6.25;;;3.70;99.90;;;;;;5006885;28;20089;-46
2024/02/14 02:53:23;;;;;;;8.70;5.80;;;3.70;99.90;;;;;;5008223;28;20112;-49
2024/02/14 02:56:10;;;;;;;11.80;5.68;;;3.70;99.90;;;;;;5007697;28;20061;-49
2024/02/14 02:58:38;;;;;;;9.90;5.90;;;3.70;99.90;;;;;;5004338;28;20050;-49
2024/02/14 03:01:09;;;;;;;11.45;5.88;;;3.70;99.90;;;;;;5009974;28;20046;-50
2024/02/14 03:03:56;;;;;;;10.55;6.22;;;3.70;99.90;;;;;;4990891;28;20415;-44
2024/02/14 03:06:44;;;;;;;13.00;7.20;;;3.70;99.90;;;;;;4983385;28;20146;-46
2024/02/14 03:09:22;;;;;;;13.48;6.40;;;3.70;99.90;;;;;;4983266;28;20120;-47
2024/02/14 03:12:10;;;;;;;8.80;6.03;;;3.70;99.90;;;;;;4984194;28;20050;-49
2024/02/14 03:14:58;;;;;;;10.00;5.65;;;3.70;99.90;;;;;;4990940;28;20570;-46
2024/02/14 03:17:33;;;;;;;12.18;6.32;;;3.60;99.90;;;;;;5006324;28;20058;-48
2024/02/14 03:20:00;;;;;;;9.43;5.85;;;3.60;99.90;;;;;;5004696;28;20042;-50
2024/02/14 03:22:31;;;;;;;8.88;5.80;;;3.60;99.90;;;;;;5003586;28;20244;-44
2024/02/14 03:24:58;;;;;;;10.75;6.50;;;3.60;99.90;;;;;;5004878;28;20124;-48
2024/02/14 03:27:26;;;;;;;10.85;5.70;;;3.60;99.90;;;;;;5006339;28;20053;-49
2024/02/14 03:29:55;;;;;;;6.97;5.13;;;3.50;99.90;;;;;;5003420;28;20042;-47
2024/02/14 03:32:23;;;;;;;10.50;5.65;;;3.50;99.90;;;;;;5003006;28;20105;-45
2024/02/14 03:34:50;;;;;;;10.57;5.82;;;3.50;99.90;;;;;;4997666;28;20038;-43
2024/02/14 03:37:17;;;;;;;9.30;5.28;;;3.40;99.90;;;;;;5002328;28;20422;-48
2024/02/14 03:39:45;;;;;;;12.40;5.45;;;3.40;99.90;;;;;;5001707;28;20049;-47
2024/02/14 03:42:12;;;;;;;12.43;5.47;;;3.30;99.90;;;;;;5004505;28;20137;-52
2024/02/14 03:44:40;;;;;;;10.85;5.38;;;3.30;99.90;;;;;;5006327;28;20045;-50
2024/02/14 03:47:07;;;;;;;10.55;5.63;;;3.30;99.90;;;;;;5000170;28;20060;-50
2024/02/14 03:49:34;;;;;;;10.02;5.38;;;3.20;99.90;;;;;;5005130;28;20081;-50
2024/02/14 03:52:08;;;;;;;9.82;5.30;;;3.20;99.90;;;;;;5000117;28;20041;-48
2024/02/14 03:54:36;;;;;;;10.23;5.50;;;3.20;99.90;;;;;;5000266;28;20049;-54
2024/02/14 03:57:08;;;;;;;8.05;5.43;;;3.10;99.90;;;;;;5002075;28;20121;-45
2024/02/14 03:59:36;;;;;;;9.10;5.57;;;3.20;99.90;;;;;;5000444;28;20053;-51
2024/02/14 04:02:04;;;;;;;8.27;5.22;;;3.10;99.90;;;;;;5006399;28;20533;-52
2024/02/14 04:04:31;;;;;;;10.65;5.93;;;3.10;99.90;;;;;;5004545;28;20076;-46
2024/02/14 04:07:00;;;;;;;11.10;5.50;;;3.10;99.90;;;;;;5000567;28;20050;-46
2024/02/14 04:09:27;;;;;;;9.45;5.68;;;3.10;99.90;;;;;;5000769;28;20050;-50
2024/02/14 04:11:55;;;;;;;11.82;5.82;;;3.10;99.90;;;;;;5002117;28;20042;-49
2024/02/14 04:14:22;;;;;;;7.53;5.22;;;3.10;99.90;;;;;;5005740;28;20336;-46
2024/02/14 04:16:49;;;;;;;13.70;5.32;;;3.10;99.90;;;;;;5005020;28;20447;-54
2024/02/14 04:19:17;;;;;;;10.68;5.57;;;3.10;99.90;;;;;;5025142;22;20060;-43
2024/02/14 04:21:45;;;;;;;8.18;5.60;;;3.20;99.90;;;;;;5026136;28;20060;-45
2024/02/14 04:24:13;;;;;;;8.32;5.03;;;3.20;99.90;;;;;;5031994;28;20045;-43
2024/02/14 04:26:40;;;;;;;12.07;5.13;;;3.30;99.90;;;;;;5010875;28;20060;-45
2024/02/14 04:29:08;;;;;;;9.43;5.38;;;3.40;99.90;;;;;;5019420;28;20045;-43
2024/02/14 04:31:35;;;;;;;9.90;5.63;;;3.50;99.90;;;;;;5031032;28;20160;-44
2024/02/14 04:34:07;;;;;;;9.40;5.35;;;3.50;99.90;;;;;;5022536;28;20100;-47
2024/02/14 04:36:35;;;;;;;11.80;5.78;;;3.60;99.90;;;;;;5033005;28;20148;-49
2024/02/14 04:39:03;;;;;;;11.18;5.55;;;3.70;99.90;;;;;;5039395;28;20038;-48
2024/02/14 04:41:30;;;;;;;8.98;5.18;;;3.70;99.90;;;;;;5035945;28;20125;-46
2024/02/14 04:43:57;;;;;;;10.43;5.57;;;3.80;99.90;;;;;;5036231;28;20084;-43
2024/02/14 04:46:24;;;;;;;9.00;5.70;;;3.90;99.90;;;;;;5038472;28;20091;-47
2024/02/14 04:48:51;;;;;;;10.88;5.80;;;3.90;99.90;;;;;;5028949;28;20152;-44
2024/02/14 04:51:18;;;;;;;9.45;6.07;;;3.90;99.90;;;;;;5032527;28;20057;-44
2024/02/14 04:53:45;;;;;;;10.05;5.70;;;3.90;99.90;;;;;;5035791;28;20473;-45
2024/02/14 04:56:12;;;;;;;11.80;5.80;;;3.90;99.90;;;;;;5018506;28;20085;-48
2024/02/14 04:58:39;;;;;;;10.57;6.13;;;3.90;99.90;;;;;;5030235;28;20052;-46
2024/02/14 05:01:07;;;;;;;12.65;5.78;;;4.00;99.90;;;;;;5034189;28;20180;-48
2024/02/14 05:03:34;;;;;;;12.40;6.32;;;4.00;99.90;;;;;;5027055;28;20053;-43
2024/02/14 05:06:02;;;;;;;9.63;5.57;;;4.00;99.90;;;;;;5013096;28;20060;-50
2024/02/14 05:08:29;;;;;;;12.85;6.43;;;4.00;99.90;;;;;;5035741;28;20124;-47
2024/02/14 05:10:56;;;;;;;10.88;5.90;;;4.10;99.90;;;;;;5028404;28;20045;-44
2024/02/14 05:13:23;;;;;;;10.07;5.78;;;4.10;99.90;;;;;;5039153;28;20411;-48
2024/02/14 05:15:51;;;;;;;11.52;6.82;;;4.10;99.90;;;;;;5008979;28;20410;-50
2024/02/14 05:18:18;;;;;;;10.07;6.25;;;4.10;99.90;;;;;;5033417;28;20049;-47
2024/02/14 05:20:46;;;;;;;9.60;5.80;;;4.10;99.90;;;;;;5032662;28;20060;-47
2024/02/14 05:23:13;;;;;;;12.57;6.35;;;4.10;99.90;;;;;;5033788;28;20506;-48
2024/02/14 05:25:40;;;;;;;12.32;6.43;;;4.20;99.90;;;;;;5032848;28;20072;-46
2024/02/14 05:28:07;;;;;;;15.23;6.47;;;4.10;99.90;;;;;;5026925;28;20045;-45
2024/02/14 05:30:36;;;;;;;11.35;5.80;;;4.20;99.90;;;;;;5035839;28;20046;-47
2024/02/14 05:33:13;;;;;;;11.40;5.85;;;4.20;99.90;;;;;;5039636;28;20056;-47
2024/02/14 05:35:40;;;;;;;9.45;6.43;;;4.20;99.90;;;;;;5032378;28;20053;-48
2024/02/14 05:38:08;;;;;;;13.43;6.65;;;4.30;99.90;;;;;;5040033;28;20037;-43
2024/02/14 05:40:37;;;;;;;16.00;7.20;;;4.30;99.90;;;;;;5036700;28;20103;-44
2024/02/14 05:43:04;;;;;;;10.35;6.18;;;4.40;99.90;;;;;;5034279;28;20145;-48
2024/02/14 05:45:31;;;;;;;14.15;7.05;;;4.40;99.90;;;;;;5034332;28;20084;-49
2024/02/14 05:47:58;;;;;;;11.95;6.78;;;4.40;99.90;;;;;;5036570;28;20056;-48
2024/02/14 05:50:25;;;;;;;13.13;6.57;;;4.50;99.90;;;;;;5031155;28;20053;-47
2024/02/14 05:52:52;;;;;;;12.70;6.35;;;4.50;99.90;;;;;;5032055;28;20120;-48
2024/02/14 05:55:19;;;;;;;11.40;7.07;;;4.50;99.90;;;;;;5040771;28;20115;-47
2024/02/14 05:57:54;;;;;;;13.00;7.05;;;4.60;99.90;;;;;;5025189;28;20514;-45
2024/02/14 06:00:21;;;;;;;11.02;6.65;;;4.60;99.90;;;;;;5031743;28;20421;-44
2024/02/14 06:02:51;;;;;;;12.90;7.00;;;4.60;99.90;;;;;;5026285;28;20045;-46
2024/02/14 06:05:18;;;;;;;12.73;7.50;;;4.70;99.90;;;;;;5022568;28;20530;-44
2024/02/14 06:07:45;;;;;;;12.60;6.32;;;4.70;99.90;;;;;;5019622;28;20049;-46
2024/02/14 06:10:13;;;;;;;13.73;7.10;;;4.80;99.90;;;;;;5030057;28;20041;-47
2024/02/14 06:12:40;;;;;;;11.02;6.63;;;4.80;99.90;;;;;;5034708;28;20116;-43
2024/02/14 06:15:07;;;;;;;13.98;6.43;;;4.80;99.90;;;;;;5023818;28;20095;-46
2024/02/14 06:17:35;;;;;;;12.30;6.50;;;4.80;99.90;;;;;;5025942;28;20077;-48
2024/02/14 06:20:05;;;;;;;14.60;6.18;;;4.80;99.90;;;;;;5031690;28;20048;-46
2024/02/14 06:22:34;;;;;;;15.32;6.75;;;4.80;99.90;;;;;;5029409;28;20537;-45
2024/02/14 06:25:07;;;;;;;12.27;6.53;;;4.90;99.90;;;;;;5029852;28;20045;-49
2024/02/14 06:27:46;;;;;;;16.08;9.05;;;4.90;99.90;;;;;;5022389;28;20433;-44
2024/02/14 06:30:13;;;;;;;14.73;8.40;;;5.00;99.90;;;;;;5034583;28;20529;-44
2024/02/14 06:32:40;;;;;;;13.02;6.53;;;4.90;99.90;;;;;;5030949;28;20121;-46
2024/02/14 06:35:07;;;;;;;13.32;6.20;;;5.00;99.90;;;;;;5029072;28;20037;-44
2024/02/14 06:37:35;;;;;;;11.85;6.03;;;5.00;99.90;;;;;;5033704;28;20052;-43
2024/02/14 06:40:14;;;;;;;11.45;6.10;;;5.00;99.90;;;;;;5020868;28;20146;-47
2024/02/14 06:42:41;;;;;;;13.20;7.00;;;5.00;99.90;;;;;;5024114;28;20068;-44
2024/02/14 06:45:08;;;;;;;12.68;6.57;;;5.10;99.90;;;;;;5022030;28;20068;-47
2024/02/14 06:47:37;;;;;;;9.32;5.72;;;5.10;99.90;;;;;;5031186;28;20096;-47
2024/02/14 06:50:05;;;;;;;11.35;6.20;;;5.10;99.90;;;;;;5026048;28;20037;-47
2024/02/14 06:52:33;;;;;;;12.73;6.20;;;5.20;99.90;;;;;;5026933;28;20108;-49
2024/02/14 06:54:59;;;;;;;13.57;7.03;;;5.20;99.90;;;;;;5027790;28;20124;-44
2024/02/14 06:57:26;;;;;;;10.35;6.68;;;5.20;99.90;;;;;;5026918;28;20038;-46
2024/02/14 06:59:53;;;;;;;9.60;6.05;;;5.30;99.90;;;;;;5028822;28;20064;-49
2024/02/14 07:02:21;;;;;;;10.65;6.47;;;5.30;99.90;;;;;;5032776;28;20120;-52
2024/02/14 07:04:49;;;;;;;17.85;7.15;;;5.40;99.90;;;;;;5027656;28;20474;-46
2024/02/14 07:07:15;;;;;;;13.60;6.47;;;5.40;99.90;;;;;;5031458;28;20049;-49
2024/02/14 07:09:42;;;;;;;12.18;6.63;;;5.50;99.90;;;;;;5010573;28;20585;-48
2024/02/14 07:12:09;;;;;;;12.45;6.80;;;5.50;99.90;;;;;;5030166;28;20504;-43
2024/02/14 07:14:37;;;;;;;12.35;6.15;;;5.50;99.90;;;;;;5017850;28;20522;-48
2024/02/14 07:17:04;;;;;;;10.27;6.15;;;5.50;99.90;;;;;;5026743;28;20045;-45
2024/02/14 07:19:31;;;;;;;12.13;6.63;;;5.60;99.90;;;;;;5027531;28;20072;-46
2024/02/14 07:21:57;;;;;;;12.75;6.75;;;5.70;99.90;;;;;;5027383;28;20170;-45
2024/02/14 07:24:24;;;;;;;13.07;6.30;;;5.80;99.90;;;;;;5024894;28;20049;-49
2024/02/14 07:26:51;;;;;;;14.32;8.15;;;5.80;99.90;;;;;;5021919;28;20518;-49
2024/02/14 07:29:18;;;;;;;11.73;7.18;;;5.80;99.90;;;;;;5025274;28;20151;-47
2024/02/14 07:31:45;;;;;;;10.63;6.63;;;5.80;99.90;;;;;;5024893;28;20052;-46
2024/02/14 07:34:12;;;;;;;14.68;7.80;;;5.80;99.90;;;;;;5024681;28;20049;-47
2024/02/14 07:36:41;;;;;;;13.40;6.95;;;5.80;99.90;;;;;;5028187;28;20096;-48
2024/02/14 07:39:08;;;;;;;11.10;7.13;;;5.90;99.90;;;;;;5023446;28;20400;-46
2024/02/14 07:41:35;;;;;;;17.30;7.38;;;5.90;99.90;;;;;;5031342;28;20052;-51
2024/02/14 07:44:02;;;;;;;14.00;7.55;;;6.00;99.90;;;;;;5024049;28;20065;-47
2024/02/14 07:46:31;;;;;;;12.98;7.25;;;6.00;99.90;;;;;;5024890;28;20530;-48
2024/02/14 07:48:58;;;;;;;12.43;7.13;;;6.10;99.90;;;;;;5024407;28;20060;-49
2024/02/14 07:51:27;;;;;;;16.10;7.50;;;6.30;99.90;;;;;;5028722;28;20144;-52
2024/02/14 07:53:55;;;;;;;12.27;7.38;;;6.30;99.90;;;;;;5031404;28;20503;-46
2024/02/14 07:56:22;;;;;;;14.23;7.13;;;6.30;99.90;;;;;;5027907;28;20045;-44
2024/02/14 07:58:49;;;;;;;13.95;7.20;;;6.40;99.90;;;;;;5027141;28;20111;-48
2024/02/14 08:01:16;;;;;;;12.48;7.90;;;6.40;99.90;;;;;;5032236;28;20052;-44
2024/02/14 08:03:45;;;;;;;15.05;8.18;;;6.50;99.90;;;;;;5026933;28;20041;-46
2024/02/14 08:06:13;;;;;;;12.98;7.78;;;6.60;99.90;;;;;;5029798;28;20078;-45
2024/02/14 08:08:40;;;;;;;18.77;9.10;;;6.70;99.90;;;;;;5031769;28;20497;-46
2024/02/14 08:11:07;;;;;;;11.50;7.47;;;6.70;99.90;;;;;;5027713;28;20160;-48
2024/02/14 08:13:34;;;;;;;10.43;6.97;;;6.90;99.90;;;;;;5030879;28;20048;-48
2024/02/14 08:16:01;;;;;;;15.52;7.57;;;6.90;99.90;;;;;;5027567;28;20548;-46
2024/02/14 08:18:28;;;;;;;13.35;7.30;;;6.90;99.90;;;;;;5033678;28;20571;-46
2024/02/14 08:20:55;;;;;;;15.52;8.25;;;7.00;99.90;;;;;;5030543;28;20045;-44
2024/02/14 08:23:23;;;;;;;12.82;7.95;;;6.90;99.90;;;;;;5029762;28;20075;-51
2024/02/14 08:25:50;;;;;;;10.55;7.20;;;6.80;99.90;;;;;;5036819;28;20120;-47
2024/02/14 08:28:20;;;;;;;11.88;7.63;;;6.70;99.90;;;;;;5036748;28;20116;-43
2024/02/14 08:30:48;;;;;;;12.83;7.83;;;6.70;99.90;;;;;;5037152;28;20061;-46
2024/02/14 08:33:15;;;;;;;14.63;7.57;;;6.80;99.90;;;;;;5032178;28;20045;-45
2024/02/14 08:35:42;;;;;;;13.70;8.20;;;6.70;99.90;;;;;;5032933;28;20045;-45
2024/02/14 08:38:10;;;;;;;11.38;7.68;;;6.70;99.90;;;;;;5040541;28;20071;-48
2024/02/14 08:40:37;;;;;;;16.65;8.05;;;6.70;99.90;;;;;;5035567;28;20116;-43
2024/02/14 08:43:04;;;;;;;27.40;14.40;;;6.60;99.90;;;;;;5037135;28;20332;-50
2024/02/14 08:45:31;;;;;;;16.52;8.35;;;6.70;99.90;;;;;;5030756;28;20540;-49
2024/02/14 08:47:59;;;;;;;13.05;8.10;;;6.80;99.90;;;;;;5030946;28;20105;-46
2024/02/14 08:50:26;;;;;;;18.50;7.70;;;6.70;99.90;;;;;;5024185;28;20037;-48
2024/02/14 08:52:53;;;;;;;14.18;6.88;;;6.80;99.90;;;;;;5026122;28;20042;-49
2024/02/14 08:55:20;;;;;;;13.57;7.55;;;6.90;99.90;;;;;;5031198;28;20056;-49
2024/02/14 08:57:49;;;;;;;13.93;7.30;;;7.00;99.90;;;;;;5024323;28;20136;-50
2024/02/14 09:00:19;;;;;;;13.93;7.85;;;6.90;99.90;;;;;;5030517;28;20052;-48
2024/02/14 09:02:47;;;;;;;12.88;7.75;;;7.00;99.90;;;;;;5023289;28;20037;-50
2024/02/14 09:05:16;;;;;;;11.70;6.70;;;7.00;99.90;;;;;;5031102;28;20063;-48
2024/02/14 09:07:44;;;;;;;11.93;7.15;;;7.20;99.90;;;;;;5028629;28;20328;-48
2024/02/14 09:10:12;;;;;;;12.88;7.60;;;7.20;99.90;;;;;;5029313;28;20125;-51
2024/02/14 09:12:41;;;;;;;12.27;7.15;;;7.30;99.90;;;;;;5029081;28;20049;-48
2024/02/14 09:15:08;;;;;;;13.93;7.03;;;7.30;99.90;;;;;;5027819;28;20120;-53
2024/02/14 09:17:35;;;;;;;12.95;7.60;;;7.40;99.90;;;;;;5028366;28;20125;-47
2024/02/14 09:20:03;;;;;;;10.95;6.95;;;7.60;99.90;;;;;;5029719;28;20037;-47
2024/02/14 09:22:30;;;;;;;12.77;7.35;;;7.70;99.90;;;;;;5029239;28;20540;-49
2024/02/14 09:24:57;;;;;;;20.35;10.35;;;7.70;99.90;;;;;;5027007;28;20047;-46
2024/02/14 09:27:24;;;;;;;14.13;8.25;;;7.70;99.90;;;;;;5027259;28;20040;-49
2024/02/14 09:29:51;;;;;;;10.75;6.38;;;7.80;99.90;;;;;;5028608;28;20048;-49
2024/02/14 09:32:18;;;;;;;13.85;6.72;;;8.10;99.90;;;;;;5029781;28;20537;-49
2024/02/14 09:34:46;;;;;;;14.07;6.22;;;8.20;99.90;;;;;;5031877;28;20468;-48
2024/02/14 09:37:13;;;;;;;13.38;6.85;;;8.30;99.90;;;;;;5031005;28;20069;-50
2024/02/14 09:39:43;;;;;;;9.98;6.22;;;8.50;99.90;;;;;;5013261;28;20103;-48
2024/02/14 09:42:14;;;;;;;10.82;6.28;;;8.50;99.90;;;;;;5016813;28;20045;-49
2024/02/14 09:44:42;;;;;;;10.95;6.47;;;8.50;99.90;;;;;;5026053;28;20037;-48
2024/02/14 09:47:09;;;;;;;14.43;7.03;;;8.70;99.90;;;;;;5033425;28;20064;-52
2024/02/14 09:49:38;;;;;;;10.18;6.32;;;8.90;99.90;;;;;;5021728;28;20057;-46
2024/02/14 09:52:07;;;;;;;13.15;5.90;;;9.10;99.90;;;;;;5033038;28;20053;-51
2024/02/14 09:54:38;;;;;;;9.88;5.78;;;9.40;99.90;;;;;;5036564;28;20030;-45
2024/02/14 09:57:06;;;;;;;10.07;6.40;;;9.40;99.90;;;;;;5028919;28;20057;-46
2024/02/14 09:59:34;;;;;;;13.07;6.25;;;9.50;99.90;;;;;;5028993;28;20571;-47
2024/02/14 10:02:01;;;;;;;10.23;6.05;;;9.60;99.90;;;;;;5028758;28;20048;-52
2024/02/14 10:04:28;;;;;;;11.18;6.35;;;9.70;99.90;;;;;;5033610;28;20131;-46
2024/02/14 10:06:56;;;;;;;12.05;6.20;;;9.70;99.90;;;;;;5029908;28;20042;-48
2024/02/14 10:09:25;;;;;;;10.25;5.93;;;9.90;99.90;;;;;;5030120;28;20049;-49
2024/02/14 10:11:52;;;;;;;10.38;5.80;;;10.00;99.90;;;;;;5032285;28;20049;-47
2024/02/14 10:14:19;;;;;;;10.13;5.50;;;9.80;99.90;;;;;;5026456;28;20106;-42
2024/02/14 10:16:46;;;;;;;12.77;5.63;;;9.70;99.90;;;;;;5031994;28;20055;-49
2024/02/14 10:19:17;;;;;;;11.60;6.07;;;9.80;99.90;;;;;;5029946;28;20135;-48
2024/02/14 10:22:05;;;;;;;9.98;6.28;;;9.60;99.90;;;;;;5034303;28;20044;-45
2024/02/14 10:24:32;;;;;;;17.83;7.00;;;9.60;99.90;;;;;;5027062;28;20432;-51
2024/02/14 10:26:59;;;;;;;9.95;5.82;;;9.60;99.90;;;;;;5032087;28;20413;-44
2024/02/14 10:29:28;;;;;;;13.35;6.47;;;9.80;99.90;;;;;;5036643;28;20040;-48
2024/02/14 10:31:55;;;;;;;13.05;6.70;;;9.80;99.90;;;;;;5027759;28;20256;-46
2024/02/14 10:34:25;;;;;;;15.73;6.65;;;10.00;99.90;;;;;;5029147;28;20052;-46
2024/02/14 10:36:56;;;;;;;16.80;8.63;;;10.10;99.90;;;;;;5027211;28;20056;-49
2024/02/14 10:39:26;;;;;;;11.30;6.05;;;10.20;99.90;;;;;;5029759;28;20117;-47
2024/02/14 10:41:53;;;;;;;14.05;6.05;;;10.50;99.90;;;;;;5032103;28;20252;-45
2024/02/14 10:44:20;;;;;;;10.38;5.35;;;10.90;99.90;;;;;;5026310;28;20071;-44
2024/02/14 10:46:52;;;;;;;10.63;6.05;;;11.50;99.90;;;;;;5031289;28;20045;-48
2024/02/14 10:49:20;;;;;;;12.52;5.65;;;11.30;99.90;;;;;;5027910;28;20076;-47
2024/02/14 10:51:50;;;;;;;10.85;6.03;;;11.60;99.90;;;;;;5029205;28;20459;-45
2024/02/14 10:54:19;;;;;;;10.65;6.30;;;11.60;99.90;;;;;;5037072;28;20048;-47
2024/02/14 10:56:52;;;;;;;11.20;6.43;;;11.60;99.90;;;;;;5025388;28;20515;-44
2024/02/14 10:59:21;;;;;;;10.98;6.15;;;11.40;99.90;;;;;;5028089;28;20052;-48
2024/02/14 11:01:48;;;;;;;9.10;5.43;;;11.30;99.90;;;;;;5027953;28;20485;-44
2024/02/14 11:04:16;;;;;;;13.35;6.20;;;11.20;99.90;;;;;;5028409;28;20590;-45
2024/02/14 11:06:47;;;;;;;11.77;5.40;;;11.20;99.90;;;;;;5025692;28;20037;-48
2024/02/14 11:09:17;;;;;;;10.40;5.53;;;11.00;99.90;;;;;;5033186;28;20585;-47
2024/02/14 11:11:45;;;;;;;8.93;5.00;;;11.00;99.90;;;;;;5030589;28;20049;-48
2024/02/14 11:14:22;;;;;;;9.63;4.97;;;10.90;99.90;;;;;;5031197;28;21411;-46
2024/02/14 11:16:52;;;;;;;9.95;5.25;;;10.90;99.90;;;;;;5030026;28;20040;-48
2024/02/14 11:19:19;;;;;;;10.52;5.00;;;10.80;99.90;;;;;;5029468;28;20037;-49
2024/02/14 11:21:48;;;;;;;10.35;5.05;;;10.80;99.90;;;;;;5036050;28;20414;-44
2024/02/14 11:24:16;;;;;;;9.98;4.97;;;10.60;99.90;;;;;;5031380;28;20059;-45
2024/02/14 11:26:51;;;;;;;10.80;5.10;;;10.40;99.90;;;;;;5034988;28;20060;-50
2024/02/14 11:29:19;;;;;;;8.07;4.72;;;10.40;99.90;;;;;;5039622;28;20134;-47
2024/02/14 11:31:57;;;;;;;;;;;10.40;99.90;;;;;;5028747;28;20034;-44
2024/02/14 11:34:24;;;;;;;8.43;4.85;;;10.40;99.90;;;;;;5032268;28;19928;-47
2024/02/14 11:36:52;;;;;;;9.50;4.50;;;10.50;99.90;;;;;;5035911;28;20045;-45
2024/02/14 11:39:20;;;;;;;8.13;3.72;;;10.70;99.90;;;;;;5036772;28;20178;-45
2024/02/14 11:41:47;;;;;;;6.15;3.58;;;11.10;99.90;;;;;;5032343;28;20033;-49
2024/02/14 11:44:14;;;;;;;4.93;3.38;;;11.40;99.90;;;;;;5035034;28;20447;-47
2024/02/14 11:46:41;;;;;;;7.03;3.30;;;11.40;99.90;;;;;;5041215;28;20041;-48
2024/02/14 11:49:09;;;;;;;9.23;2.90;;;11.40;99.90;;;;;;5031721;28;20132;-46
2024/02/14 11:51:36;;;;;;;5.22;2.72;;;11.70;99.90;;;;;;5037436;28;20045;-45
2024/02/14 11:54:06;;;;;;;5.38;2.80;;;11.50;99.90;;;;;;5037968;28;20069;-46
2024/02/14 11:56:36;;;;;;;6.68;3.60;;;11.60;99.90;;;;;;5037250;28;20185;-45
2024/02/14 11:59:09;;;;;;;4.85;2.78;;;11.80;99.90;;;;;;5035515;28;20140;-44
2024/02/14 12:01:38;;;;;;;8.15;2.80;;;11.80;99.90;;;;;;5032889;28;20029;-45
2024/02/14 12:04:08;;;;;;;4.60;2.92;;;12.20;99.90;;;;;;5039877;28;20262;-48
2024/02/14 12:06:36;;;;;;;5.45;2.67;;;12.40;99.90;;;;;;5024771;28;20077;-48
2024/02/14 12:09:05;;;;;;;6.03;2.65;;;12.40;99.90;;;;;;5035774;28;20049;-46
2024/02/14 12:11:38;;;;;;;7.78;2.60;;;12.60;99.90;;;;;;5030825;28;20482;-46
2024/02/14 12:14:09;;;;;;;5.65;2.75;;;12.40;99.90;;;;;;5032402;28;20779;-47
2024/02/14 12:16:39;;;;;;;8.15;3.90;;;12.20;99.90;;;;;;5032087;28;20291;-45
2024/02/14 12:19:09;;;;;;;5.72;2.83;;;12.00;99.90;;;;;;5030650;28;20049;-45
2024/02/14 12:21:38;;;;;;;5.47;2.78;;;11.70;99.90;;;;;;5036901;28;20128;-47
2024/02/14 12:24:10;;;;;;;6.03;2.83;;;11.60;99.90;;;;;;5033238;28;20100;-45
2024/02/14 12:26:38;;;;;;;4.38;2.38;;;11.60;99.90;;;;;;5039323;28;20098;-44
2024/02/14 12:29:07;;;;;;;5.97;2.67;;;11.40;99.90;;;;;;5031503;28;20091;-43
2024/02/14 12:31:35;;;;;;;6.60;2.95;;;11.40;99.90;;;;;;5034908;28;20218;-44
2024/02/14 12:34:04;;;;;;;5.93;2.50;;;11.40;99.90;;;;;;5031625;28;20177;-49
2024/02/14 12:36:33;;;;;;;5.03;2.20;;;11.40;99.90;;;;;;5028157;28;20474;-47
2024/02/14 12:39:04;;;;;;;4.30;2.65;;;11.40;99.90;;;;;;5025765;28;20041;-45
2024/02/14 12:41:31;;;;;;;5.47;2.20;;;11.50;99.90;;;;;;5024049;28;20041;-45
2024/02/14 12:44:00;;;;;;;5.63;2.67;;;11.50;99.90;;;;;;5025516;28;20045;-45
2024/02/14 12:46:27;;;;;;;5.28;2.38;;;11.40;99.90;;;;;;5030118;28;20409;-45
2024/02/14 12:48:55;;;;;;;5.22;2.30;;;11.40;99.90;;;;;;5031595;28;20152;-49
2024/02/14 12:51:22;;;;;;;3.50;2.15;;;11.50;99.90;;;;;;5039210;28;20049;-50
2024/02/14 12:53:49;;;;;;;7.40;2.67;;;11.60;99.90;;;;;;5036470;28;20421;-46
2024/02/14 12:56:16;;;;;;;5.93;2.50;;;11.60;99.90;;;;;;5033911;28;20037;-44
2024/02/14 12:58:44;;;;;;;4.05;2.30;;;11.60;99.90;;;;;;5031815;28;20127;-48